sensor_id;sensor_type;location;lat;lon;timestamp;temperature;humidity
74617;DHT22;63123;50.906;4.198;2022-12-18T00:01:28;17.60;38.60
74617;DHT22;63123;50.906;4.198;2022-12-18T00:03:55;17.60;38.90
74617;DHT22;63123;50.906;4.198;2022-12-18T00:06:21;17.50;38.70
74617;DHT22;63123;50.906;4.198;2022-12-18T00:08:48;17.60;39.00
74617;DHT22;63123;50.906;4.198;2022-12-18T00:11:16;17.50;38.70
74617;DHT22;63123;50.906;4.198;2022-12-18T00:13:42;17.60;38.90
74617;DHT22;63123;50.906;4.198;2022-12-18T00:16:18;17.50;38.80
74617;DHT22;63123;50.906;4.198;2022-12-18T00:18:52;17.50;38.80
74617;DHT22;63123;50.906;4.198;2022-12-18T00:21:19;17.60;38.90
74617;DHT22;63123;50.906;4.198;2022-12-18T00:23:46;17.60;39.00
74617;DHT22;63123;50.906;4.198;2022-12-18T00:26:17;17.60;39.10
74617;DHT22;63123;50.906;4.198;2022-12-18T00:28:44;17.50;39.00
74617;DHT22;63123;50.906;4.198;2022-12-18T00:31:11;17.50;38.60
74617;DHT22;63123;50.906;4.198;2022-12-18T00:33:37;17.50;39.00
74617;DHT22;63123;50.906;4.198;2022-12-18T00:36:12;17.60;38.90
74617;DHT22;63123;50.906;4.198;2022-12-18T00:38:38;17.50;38.80
74617;DHT22;63123;50.906;4.198;2022-12-18T00:41:07;17.60;38.90
74617;DHT22;63123;50.906;4.198;2022-12-18T00:43:32;17.60;39.80
74617;DHT22;63123;50.906;4.198;2022-12-18T00:45:59;17.60;38.90
74617;DHT22;63123;50.906;4.198;2022-12-18T00:48:25;17.50;38.60
74617;DHT22;63123;50.906;4.198;2022-12-18T00:50:51;17.60;38.80
74617;DHT22;63123;50.906;4.198;2022-12-18T00:53:17;17.60;38.70
74617;DHT22;63123;50.906;4.198;2022-12-18T00:55:43;17.60;39.00
74617;DHT22;63123;50.906;4.198;2022-12-18T00:58:09;17.60;38.90
74617;DHT22;63123;50.906;4.198;2022-12-18T01:00:35;17.60;39.10
74617;DHT22;63123;50.906;4.198;2022-12-18T01:03:01;17.60;38.50
74617;DHT22;63123;50.906;4.198;2022-12-18T01:05:27;17.50;39.00
74617;DHT22;63123;50.906;4.198;2022-12-18T01:07:53;17.60;38.80
74617;DHT22;63123;50.906;4.198;2022-12-18T01:10:18;17.60;39.00
74617;DHT22;63123;50.906;4.198;2022-12-18T01:12:44;17.50;38.90
74617;DHT22;63123;50.906;4.198;2022-12-18T01:15:12;17.60;39.10
74617;DHT22;63123;50.906;4.198;2022-12-18T01:17:37;17.60;38.90
74617;DHT22;63123;50.906;4.198;2022-12-18T01:20:04;17.60;39.00
74617;DHT22;63123;50.906;4.198;2022-12-18T01:22:29;17.60;38.80
74617;DHT22;63123;50.906;4.198;2022-12-18T01:24:55;17.60;38.60
74617;DHT22;63123;50.906;4.198;2022-12-18T01:27:21;17.60;38.50
74617;DHT22;63123;50.906;4.198;2022-12-18T01:29:46;17.60;38.70
74617;DHT22;63123;50.906;4.198;2022-12-18T01:32:12;17.60;38.80
74617;DHT22;63123;50.906;4.198;2022-12-18T01:34:37;17.50;38.40
74617;DHT22;63123;50.906;4.198;2022-12-18T01:37:04;17.60;39.10
74617;DHT22;63123;50.906;4.198;2022-12-18T01:39:30;17.50;39.00
74617;DHT22;63123;50.906;4.198;2022-12-18T01:41:57;17.60;38.80
74617;DHT22;63123;50.906;4.198;2022-12-18T01:50:15;17.60;38.70
74617;DHT22;63123;50.906;4.198;2022-12-18T01:52:43;17.60;39.00
74617;DHT22;63123;50.906;4.198;2022-12-18T01:55:11;17.60;38.60
74617;DHT22;63123;50.906;4.198;2022-12-18T01:57:37;17.60;38.90
74617;DHT22;63123;50.906;4.198;2022-12-18T02:00:18;17.60;38.90
74617;DHT22;63123;50.906;4.198;2022-12-18T02:02:45;17.50;38.90
74617;DHT22;63123;50.906;4.198;2022-12-18T02:05:15;17.60;38.60
74617;DHT22;63123;50.906;4.198;2022-12-18T02:10:31;17.50;38.70
74617;DHT22;63123;50.906;4.198;2022-12-18T02:15:45;17.60;38.70
74617;DHT22;63123;50.906;4.198;2022-12-18T02:18:30;17.50;38.90
74617;DHT22;63123;50.906;4.198;2022-12-18T02:21:04;17.60;38.60
74617;DHT22;63123;50.906;4.198;2022-12-18T02:27:02;17.50;39.00
74617;DHT22;63123;50.906;4.198;2022-12-18T02:29:37;17.60;39.80
74617;DHT22;63123;50.906;4.198;2022-12-18T02:32:08;17.50;38.70
74617;DHT22;63123;50.906;4.198;2022-12-18T02:34:39;17.60;38.90
74617;DHT22;63123;50.906;4.198;2022-12-18T02:37:08;17.50;38.60
74617;DHT22;63123;50.906;4.198;2022-12-18T02:39:36;17.60;38.90
74617;DHT22;63123;50.906;4.198;2022-12-18T02:42:03;17.60;38.90
74617;DHT22;63123;50.906;4.198;2022-12-18T02:44:34;17.50;38.60
74617;DHT22;63123;50.906;4.198;2022-12-18T02:46:59;17.50;38.70
74617;DHT22;63123;50.906;4.198;2022-12-18T03:00:28;17.50;39.30
74617;DHT22;63123;50.906;4.198;2022-12-18T03:03:28;17.50;39.20
74617;DHT22;63123;50.906;4.198;2022-12-18T03:06:04;17.50;38.80
74617;DHT22;63123;50.906;4.198;2022-12-18T03:08:36;17.50;38.90
74617;DHT22;63123;50.906;4.198;2022-12-18T03:11:09;17.50;38.70
74617;DHT22;63123;50.906;4.198;2022-12-18T03:13:45;17.50;38.80
74617;DHT22;63123;50.906;4.198;2022-12-18T03:16:15;17.50;38.60
74617;DHT22;63123;50.906;4.198;2022-12-18T03:18:53;17.50;39.00
74617;DHT22;63123;50.906;4.198;2022-12-18T03:21:25;17.50;38.60
74617;DHT22;63123;50.906;4.198;2022-12-18T03:23:53;17.50;38.80
74617;DHT22;63123;50.906;4.198;2022-12-18T03:26:23;17.50;38.70
74617;DHT22;63123;50.906;4.198;2022-12-18T03:29:03;17.60;39.00
74617;DHT22;63123;50.906;4.198;2022-12-18T03:31:31;17.60;38.80
74617;DHT22;63123;50.906;4.198;2022-12-18T03:34:04;17.50;38.50
74617;DHT22;63123;50.906;4.198;2022-12-18T03:36:31;17.50;38.80
74617;DHT22;63123;50.906;4.198;2022-12-18T03:38:57;17.50;38.80
74617;DHT22;63123;50.906;4.198;2022-12-18T03:41:29;17.50;38.30
74617;DHT22;63123;50.906;4.198;2022-12-18T03:54:31;17.60;38.50
74617;DHT22;63123;50.906;4.198;2022-12-18T03:57:04;17.50;38.80
74617;DHT22;63123;50.906;4.198;2022-12-18T03:59:31;17.50;38.90
74617;DHT22;63123;50.906;4.198;2022-12-18T04:01:59;17.60;38.60
74617;DHT22;63123;50.906;4.198;2022-12-18T04:04:27;17.60;38.60
74617;DHT22;63123;50.906;4.198;2022-12-18T04:06:54;17.50;38.50
74617;DHT22;63123;50.906;4.198;2022-12-18T04:09:20;17.50;38.60
74617;DHT22;63123;50.906;4.198;2022-12-18T04:11:46;17.50;38.40
74617;DHT22;63123;50.906;4.198;2022-12-18T04:14:12;17.60;38.50
74617;DHT22;63123;50.906;4.198;2022-12-18T04:16:38;17.60;38.60
74617;DHT22;63123;50.906;4.198;2022-12-18T04:19:04;17.50;38.80
74617;DHT22;63123;50.906;4.198;2022-12-18T04:21:30;17.50;38.60
74617;DHT22;63123;50.906;4.198;2022-12-18T04:23:55;17.60;38.40
74617;DHT22;63123;50.906;4.198;2022-12-18T04:26:21;17.50;38.40
74617;DHT22;63123;50.906;4.198;2022-12-18T04:28:47;17.50;38.60
74617;DHT22;63123;50.906;4.198;2022-12-18T04:31:12;17.50;38.50
74617;DHT22;63123;50.906;4.198;2022-12-18T04:33:38;17.50;38.80
74617;DHT22;63123;50.906;4.198;2022-12-18T04:36:04;17.60;38.40
74617;DHT22;63123;50.906;4.198;2022-12-18T04:38:30;17.50;38.50
74617;DHT22;63123;50.906;4.198;2022-12-18T04:40:56;17.50;38.20
74617;DHT22;63123;50.906;4.198;2022-12-18T04:43:21;17.50;38.60
74617;DHT22;63123;50.906;4.198;2022-12-18T04:45:47;17.50;38.70
74617;DHT22;63123;50.906;4.198;2022-12-18T04:48:12;17.50;38.60
74617;DHT22;63123;50.906;4.198;2022-12-18T04:50:38;17.50;38.90
74617;DHT22;63123;50.906;4.198;2022-12-18T04:53:04;17.50;38.80
74617;DHT22;63123;50.906;4.198;2022-12-18T04:55:29;17.50;38.70
74617;DHT22;63123;50.906;4.198;2022-12-18T04:57:55;17.50;38.70
74617;DHT22;63123;50.906;4.198;2022-12-18T05:00:21;17.50;38.60
74617;DHT22;63123;50.906;4.198;2022-12-18T05:02:47;17.50;38.60
74617;DHT22;63123;50.906;4.198;2022-12-18T05:05:13;17.60;38.70
74617;DHT22;63123;50.906;4.198;2022-12-18T05:07:39;17.50;38.80
74617;DHT22;63123;50.906;4.198;2022-12-18T05:10:05;17.50;39.10
74617;DHT22;63123;50.906;4.198;2022-12-18T05:12:32;17.50;39.00
74617;DHT22;63123;50.906;4.198;2022-12-18T05:14:57;17.50;38.90
74617;DHT22;63123;50.906;4.198;2022-12-18T05:17:23;17.50;39.00
74617;DHT22;63123;50.906;4.198;2022-12-18T05:19:49;17.50;38.90
74617;DHT22;63123;50.906;4.198;2022-12-18T05:22:14;17.50;39.00
74617;DHT22;63123;50.906;4.198;2022-12-18T05:24:40;17.50;39.20
74617;DHT22;63123;50.906;4.198;2022-12-18T05:27:05;17.50;39.20
74617;DHT22;63123;50.906;4.198;2022-12-18T05:29:31;17.50;39.20
74617;DHT22;63123;50.906;4.198;2022-12-18T05:31:57;17.50;39.00
74617;DHT22;63123;50.906;4.198;2022-12-18T05:34:22;17.50;39.00
74617;DHT22;63123;50.906;4.198;2022-12-18T05:36:48;17.50;39.30
74617;DHT22;63123;50.906;4.198;2022-12-18T05:39:14;17.50;39.20
74617;DHT22;63123;50.906;4.198;2022-12-18T05:41:39;17.50;39.00
74617;DHT22;63123;50.906;4.198;2022-12-18T05:44:05;17.50;39.10
74617;DHT22;63123;50.906;4.198;2022-12-18T05:46:30;17.50;38.80
74617;DHT22;63123;50.906;4.198;2022-12-18T05:48:59;17.50;38.90
74617;DHT22;63123;50.906;4.198;2022-12-18T05:51:26;17.50;39.20
74617;DHT22;63123;50.906;4.198;2022-12-18T05:53:52;17.50;38.90
74617;DHT22;63123;50.906;4.198;2022-12-18T05:56:19;17.50;39.00
74617;DHT22;63123;50.906;4.198;2022-12-18T05:58:46;17.50;38.70
74617;DHT22;63123;50.906;4.198;2022-12-18T06:01:17;17.60;38.60
74617;DHT22;63123;50.906;4.198;2022-12-18T06:03:43;17.60;38.90
74617;DHT22;63123;50.906;4.198;2022-12-18T06:06:24;17.60;39.10
74617;DHT22;63123;50.906;4.198;2022-12-18T06:08:50;17.60;38.90
74617;DHT22;63123;50.906;4.198;2022-12-18T06:11:19;17.50;39.00
74617;DHT22;63123;50.906;4.198;2022-12-18T06:13:45;17.50;38.80
74617;DHT22;63123;50.906;4.198;2022-12-18T06:16:11;17.60;39.40
74617;DHT22;63123;50.906;4.198;2022-12-18T06:18:37;17.50;39.10
74617;DHT22;63123;50.906;4.198;2022-12-18T06:21:03;17.50;38.60
74617;DHT22;63123;50.906;4.198;2022-12-18T06:23:29;17.50;38.70
74617;DHT22;63123;50.906;4.198;2022-12-18T06:25:54;17.50;39.00
74617;DHT22;63123;50.906;4.198;2022-12-18T06:28:20;17.50;39.00
74617;DHT22;63123;50.906;4.198;2022-12-18T06:30:47;17.50;38.70
74617;DHT22;63123;50.906;4.198;2022-12-18T06:33:14;17.50;38.90
74617;DHT22;63123;50.906;4.198;2022-12-18T06:35:40;17.50;38.60
74617;DHT22;63123;50.906;4.198;2022-12-18T06:38:06;17.60;38.20
74617;DHT22;63123;50.906;4.198;2022-12-18T06:40:32;17.60;38.90
74617;DHT22;63123;50.906;4.198;2022-12-18T06:42:57;17.50;38.70
74617;DHT22;63123;50.906;4.198;2022-12-18T06:45:23;17.50;39.00
74617;DHT22;63123;50.906;4.198;2022-12-18T06:47:49;17.50;38.80
74617;DHT22;63123;50.906;4.198;2022-12-18T06:50:15;17.50;38.60
74617;DHT22;63123;50.906;4.198;2022-12-18T06:52:41;17.50;39.10
74617;DHT22;63123;50.906;4.198;2022-12-18T06:55:10;17.50;38.70
74617;DHT22;63123;50.906;4.198;2022-12-18T06:57:36;17.50;38.60
74617;DHT22;63123;50.906;4.198;2022-12-18T07:00:03;17.50;38.10
74617;DHT22;63123;50.906;4.198;2022-12-18T07:02:29;17.50;38.90
74617;DHT22;63123;50.906;4.198;2022-12-18T07:04:55;17.50;38.50
74617;DHT22;63123;50.906;4.198;2022-12-18T07:07:20;17.50;38.60
74617;DHT22;63123;50.906;4.198;2022-12-18T07:09:46;17.60;38.60
74617;DHT22;63123;50.906;4.198;2022-12-18T07:12:12;17.50;38.20
74617;DHT22;63123;50.906;4.198;2022-12-18T07:14:37;17.50;38.40
74617;DHT22;63123;50.906;4.198;2022-12-18T07:17:03;17.50;38.50
74617;DHT22;63123;50.906;4.198;2022-12-18T07:19:29;17.50;38.50
74617;DHT22;63123;50.906;4.198;2022-12-18T07:21:54;17.50;38.50
74617;DHT22;63123;50.906;4.198;2022-12-18T07:24:20;17.50;39.00
74617;DHT22;63123;50.906;4.198;2022-12-18T07:26:46;17.50;38.70
74617;DHT22;63123;50.906;4.198;2022-12-18T07:29:12;17.50;38.50
74617;DHT22;63123;50.906;4.198;2022-12-18T07:31:37;17.50;38.50
74617;DHT22;63123;50.906;4.198;2022-12-18T07:34:03;17.50;38.70
74617;DHT22;63123;50.906;4.198;2022-12-18T07:36:28;17.50;38.40
74617;DHT22;63123;50.906;4.198;2022-12-18T07:38:54;17.60;38.70
74617;DHT22;63123;50.906;4.198;2022-12-18T07:41:20;17.50;38.60
74617;DHT22;63123;50.906;4.198;2022-12-18T07:43:47;17.50;38.60
74617;DHT22;63123;50.906;4.198;2022-12-18T07:46:13;17.50;38.50
74617;DHT22;63123;50.906;4.198;2022-12-18T07:48:40;17.50;38.50
74617;DHT22;63123;50.906;4.198;2022-12-18T07:51:07;17.50;38.50
74617;DHT22;63123;50.906;4.198;2022-12-18T07:53:34;17.50;38.90
74617;DHT22;63123;50.906;4.198;2022-12-18T07:56:03;17.50;38.60
74617;DHT22;63123;50.906;4.198;2022-12-18T07:58:30;17.50;38.70
74617;DHT22;63123;50.906;4.198;2022-12-18T08:01:10;17.50;38.30
74617;DHT22;63123;50.906;4.198;2022-12-18T08:03:37;17.50;38.20
74617;DHT22;63123;50.906;4.198;2022-12-18T08:06:04;17.50;38.80
74617;DHT22;63123;50.906;4.198;2022-12-18T08:08:30;17.50;38.60
74617;DHT22;63123;50.906;4.198;2022-12-18T08:10:56;17.50;38.60
74617;DHT22;63123;50.906;4.198;2022-12-18T08:13:22;17.50;38.40
74617;DHT22;63123;50.906;4.198;2022-12-18T08:16:03;17.50;38.70
74617;DHT22;63123;50.906;4.198;2022-12-18T08:18:29;17.50;38.60
74617;DHT22;63123;50.906;4.198;2022-12-18T08:20:55;17.50;38.20
74617;DHT22;63123;50.906;4.198;2022-12-18T08:23:21;17.50;38.50
74617;DHT22;63123;50.906;4.198;2022-12-18T08:25:46;17.50;37.90
74617;DHT22;63123;50.906;4.198;2022-12-18T08:28:12;17.50;37.20
74617;DHT22;63123;50.906;4.198;2022-12-18T08:30:37;17.50;35.80
74617;DHT22;63123;50.906;4.198;2022-12-18T08:33:03;17.50;37.00
74617;DHT22;63123;50.906;4.198;2022-12-18T08:35:29;17.60;36.40
74617;DHT22;63123;50.906;4.198;2022-12-18T08:37:54;17.60;37.30
74617;DHT22;63123;50.906;4.198;2022-12-18T08:40:20;17.60;36.90
74617;DHT22;63123;50.906;4.198;2022-12-18T08:42:45;17.60;36.70
74617;DHT22;63123;50.906;4.198;2022-12-18T08:45:33;17.50;36.80
74617;DHT22;63123;50.906;4.198;2022-12-18T08:47:59;17.50;37.10
74617;DHT22;63123;50.906;4.198;2022-12-18T08:50:25;17.50;36.30
74617;DHT22;63123;50.906;4.198;2022-12-18T08:52:50;17.60;36.60
74617;DHT22;63123;50.906;4.198;2022-12-18T08:55:16;17.60;35.80
74617;DHT22;63123;50.906;4.198;2022-12-18T08:57:42;17.60;35.70
74617;DHT22;63123;50.906;4.198;2022-12-18T09:00:08;17.60;35.70
74617;DHT22;63123;50.906;4.198;2022-12-18T09:02:34;17.60;36.70
74617;DHT22;63123;50.906;4.198;2022-12-18T09:04:59;17.60;37.30
74617;DHT22;63123;50.906;4.198;2022-12-18T09:07:25;17.50;37.70
74617;DHT22;63123;50.906;4.198;2022-12-18T09:09:51;17.60;37.30
74617;DHT22;63123;50.906;4.198;2022-12-18T09:12:16;17.60;37.30
74617;DHT22;63123;50.906;4.198;2022-12-18T09:14:42;17.50;38.00
74617;DHT22;63123;50.906;4.198;2022-12-18T09:17:08;17.50;37.10
74617;DHT22;63123;50.906;4.198;2022-12-18T09:19:33;17.50;37.90
74617;DHT22;63123;50.906;4.198;2022-12-18T09:21:59;17.50;36.90
74617;DHT22;63123;50.906;4.198;2022-12-18T09:24:24;17.50;36.20
74617;DHT22;63123;50.906;4.198;2022-12-18T09:26:53;17.60;36.50
74617;DHT22;63123;50.906;4.198;2022-12-18T09:29:20;17.60;37.40
74617;DHT22;63123;50.906;4.198;2022-12-18T09:31:47;17.50;36.90
74617;DHT22;63123;50.906;4.198;2022-12-18T09:34:12;17.50;37.40
74617;DHT22;63123;50.906;4.198;2022-12-18T09:36:38;17.50;36.90
74617;DHT22;63123;50.906;4.198;2022-12-18T09:39:04;17.50;37.10
74617;DHT22;63123;50.906;4.198;2022-12-18T09:41:50;17.60;37.70
74617;DHT22;63123;50.906;4.198;2022-12-18T09:44:29;17.60;37.70
74617;DHT22;63123;50.906;4.198;2022-12-18T09:47:13;17.50;37.60
74617;DHT22;63123;50.906;4.198;2022-12-18T09:49:44;17.60;36.40
74617;DHT22;63123;50.906;4.198;2022-12-18T09:52:20;17.60;35.70
74617;DHT22;63123;50.906;4.198;2022-12-18T09:54:52;17.50;37.10
74617;DHT22;63123;50.906;4.198;2022-12-18T09:57:21;17.50;37.50
74617;DHT22;63123;50.906;4.198;2022-12-18T09:59:54;17.50;37.00
74617;DHT22;63123;50.906;4.198;2022-12-18T10:02:23;17.60;37.30
74617;DHT22;63123;50.906;4.198;2022-12-18T10:10:17;17.60;37.20
74617;DHT22;63123;50.906;4.198;2022-12-18T10:15:50;17.50;38.10
74617;DHT22;63123;50.906;4.198;2022-12-18T10:18:51;17.50;37.30
74617;DHT22;63123;50.906;4.198;2022-12-18T10:21:32;17.50;37.90
74617;DHT22;63123;50.906;4.198;2022-12-18T10:24:23;17.50;38.20
74617;DHT22;63123;50.906;4.198;2022-12-18T10:26:54;17.50;37.30
74617;DHT22;63123;50.906;4.198;2022-12-18T10:29:21;17.50;37.80
74617;DHT22;63123;50.906;4.198;2022-12-18T10:31:47;17.50;36.80
74617;DHT22;63123;50.906;4.198;2022-12-18T10:34:13;17.50;37.10
74617;DHT22;63123;50.906;4.198;2022-12-18T10:36:39;17.60;36.90
74617;DHT22;63123;50.906;4.198;2022-12-18T10:39:20;17.50;37.30
74617;DHT22;63123;50.906;4.198;2022-12-18T10:41:47;17.50;37.60
74617;DHT22;63123;50.906;4.198;2022-12-18T10:44:21;17.60;37.10
74617;DHT22;63123;50.906;4.198;2022-12-18T10:46:54;17.50;37.00
74617;DHT22;63123;50.906;4.198;2022-12-18T10:49:27;17.60;37.50
74617;DHT22;63123;50.906;4.198;2022-12-18T10:54:38;17.60;36.80
74617;DHT22;63123;50.906;4.198;2022-12-18T10:57:29;17.50;38.00
74617;DHT22;63123;50.906;4.198;2022-12-18T10:59:57;17.60;37.40
74617;DHT22;63123;50.906;4.198;2022-12-18T11:02:37;17.60;37.10
74617;DHT22;63123;50.906;4.198;2022-12-18T11:05:43;17.50;37.50
74617;DHT22;63123;50.906;4.198;2022-12-18T11:08:20;17.50;37.90
74617;DHT22;63123;50.906;4.198;2022-12-18T11:10:47;17.50;37.60
74617;DHT22;63123;50.906;4.198;2022-12-18T11:13:20;17.50;37.20
74617;DHT22;63123;50.906;4.198;2022-12-18T11:15:46;17.60;37.60
74617;DHT22;63123;50.906;4.198;2022-12-18T11:18:34;17.50;37.70
74617;DHT22;63123;50.906;4.198;2022-12-18T11:21:11;17.50;36.70
74617;DHT22;63123;50.906;4.198;2022-12-18T11:23:50;17.60;37.90
74617;DHT22;63123;50.906;4.198;2022-12-18T11:26:16;17.50;37.00
74617;DHT22;63123;50.906;4.198;2022-12-18T11:28:49;17.50;36.90
74617;DHT22;63123;50.906;4.198;2022-12-18T11:33:43;17.50;37.70
74617;DHT22;63123;50.906;4.198;2022-12-18T11:36:10;17.60;37.00
74617;DHT22;63123;50.906;4.198;2022-12-18T11:38:38;17.50;37.20
74617;DHT22;63123;50.906;4.198;2022-12-18T11:41:30;17.60;37.30
74617;DHT22;63123;50.906;4.198;2022-12-18T11:44:32;17.50;37.70
74617;DHT22;63123;50.906;4.198;2022-12-18T11:47:08;17.50;37.50
74617;DHT22;63123;50.906;4.198;2022-12-18T11:49:36;17.60;37.00
74617;DHT22;63123;50.906;4.198;2022-12-18T11:52:08;17.50;37.30
74617;DHT22;63123;50.906;4.198;2022-12-18T11:54:35;17.60;36.50
74617;DHT22;63123;50.906;4.198;2022-12-18T12:02:09;17.60;36.90
74617;DHT22;63123;50.906;4.198;2022-12-18T12:07:38;17.50;37.20
74617;DHT22;63123;50.906;4.198;2022-12-18T12:16:14;17.60;37.50
74617;DHT22;63123;50.906;4.198;2022-12-18T12:18:50;17.50;37.80
74617;DHT22;63123;50.906;4.198;2022-12-18T12:21:41;17.50;37.10
74617;DHT22;63123;50.906;4.198;2022-12-18T12:24:26;17.60;37.00
74617;DHT22;63123;50.906;4.198;2022-12-18T12:32:07;17.60;37.40
74617;DHT22;63123;50.906;4.198;2022-12-18T12:39:54;17.60;37.60
74617;DHT22;63123;50.906;4.198;2022-12-18T12:42:44;17.50;37.40
74617;DHT22;63123;50.906;4.198;2022-12-18T12:45:51;17.50;36.80
74617;DHT22;63123;50.906;4.198;2022-12-18T12:50:50;17.60;37.50
74617;DHT22;63123;50.906;4.198;2022-12-18T12:53:24;17.50;36.80
74617;DHT22;63123;50.906;4.198;2022-12-18T12:55:52;17.60;36.90
74617;DHT22;63123;50.906;4.198;2022-12-18T12:58:23;17.50;37.00
74617;DHT22;63123;50.906;4.198;2022-12-18T13:03:49;17.60;36.80
74617;DHT22;63123;50.906;4.198;2022-12-18T13:06:34;17.50;37.20
74617;DHT22;63123;50.906;4.198;2022-12-18T13:09:03;17.50;37.40
74617;DHT22;63123;50.906;4.198;2022-12-18T13:11:45;17.60;37.20
74617;DHT22;63123;50.906;4.198;2022-12-18T13:19:47;17.60;37.40
74617;DHT22;63123;50.906;4.198;2022-12-18T13:22:25;17.60;36.80
74617;DHT22;63123;50.906;4.198;2022-12-18T13:24:53;17.60;37.60
74617;DHT22;63123;50.906;4.198;2022-12-18T13:38:23;17.50;36.30
74617;DHT22;63123;50.906;4.198;2022-12-18T13:46:17;17.60;36.60
74617;DHT22;63123;50.906;4.198;2022-12-18T13:51:25;17.60;37.10
74617;DHT22;63123;50.906;4.198;2022-12-18T13:53:55;17.50;36.90
74617;DHT22;63123;50.906;4.198;2022-12-18T13:56:24;17.50;36.90
74617;DHT22;63123;50.906;4.198;2022-12-18T13:59:25;17.60;36.40
74617;DHT22;63123;50.906;4.198;2022-12-18T14:01:54;17.60;37.10
74617;DHT22;63123;50.906;4.198;2022-12-18T14:06:50;17.50;37.30
74617;DHT22;63123;50.906;4.198;2022-12-18T14:09:20;17.60;37.10
74617;DHT22;63123;50.906;4.198;2022-12-18T14:11:50;17.60;37.00
74617;DHT22;63123;50.906;4.198;2022-12-18T14:14:17;17.60;36.20
74617;DHT22;63123;50.906;4.198;2022-12-18T14:16:43;17.60;36.70
74617;DHT22;63123;50.906;4.198;2022-12-18T14:19:17;17.60;37.30
74617;DHT22;63123;50.906;4.198;2022-12-18T14:21:49;17.50;36.60
74617;DHT22;63123;50.906;4.198;2022-12-18T14:24:18;17.50;37.00
74617;DHT22;63123;50.906;4.198;2022-12-18T14:26:44;17.60;36.90
74617;DHT22;63123;50.906;4.198;2022-12-18T14:29:29;17.60;37.00
74617;DHT22;63123;50.906;4.198;2022-12-18T14:32:11;17.60;37.10
74617;DHT22;63123;50.906;4.198;2022-12-18T14:34:39;17.50;37.10
74617;DHT22;63123;50.906;4.198;2022-12-18T14:37:07;17.60;36.90
74617;DHT22;63123;50.906;4.198;2022-12-18T14:39:34;17.50;37.10
74617;DHT22;63123;50.906;4.198;2022-12-18T14:42:00;17.60;37.10
74617;DHT22;63123;50.906;4.198;2022-12-18T14:44:25;17.60;36.60
74617;DHT22;63123;50.906;4.198;2022-12-18T14:46:51;17.60;36.60
74617;DHT22;63123;50.906;4.198;2022-12-18T14:49:31;17.60;37.10
74617;DHT22;63123;50.906;4.198;2022-12-18T14:51:59;17.50;37.20
74617;DHT22;63123;50.906;4.198;2022-12-18T14:54:26;17.60;36.50
74617;DHT22;63123;50.906;4.198;2022-12-18T14:57:02;17.60;37.20
74617;DHT22;63123;50.906;4.198;2022-12-18T14:59:30;17.60;37.50
74617;DHT22;63123;50.906;4.198;2022-12-18T15:02:41;17.50;36.80
74617;DHT22;63123;50.906;4.198;2022-12-18T15:04:47;17.60;36.20
74617;DHT22;63123;50.906;4.198;2022-12-18T15:10:10;17.60;37.40
74617;DHT22;63123;50.906;4.198;2022-12-18T15:12:40;17.50;37.20
74617;DHT22;63123;50.906;4.198;2022-12-18T15:20:38;17.60;37.00
74617;DHT22;63123;50.906;4.198;2022-12-18T15:23:04;17.60;36.90
74617;DHT22;63123;50.906;4.198;2022-12-18T15:25:37;17.60;36.80
74617;DHT22;63123;50.906;4.198;2022-12-18T15:28:04;17.60;37.00
74617;DHT22;63123;50.906;4.198;2022-12-18T15:31:42;17.50;37.40
74617;DHT22;63123;50.906;4.198;2022-12-18T15:33:44;17.50;37.20
74617;DHT22;63123;50.906;4.198;2022-12-18T15:36:16;17.60;36.20
74617;DHT22;63123;50.906;4.198;2022-12-18T15:38:46;17.50;36.70
74617;DHT22;63123;50.906;4.198;2022-12-18T15:41:20;17.50;37.20
74617;DHT22;63123;50.906;4.198;2022-12-18T15:43:47;17.60;36.50
74617;DHT22;63123;50.906;4.198;2022-12-18T15:46:16;17.60;36.80
74617;DHT22;63123;50.906;4.198;2022-12-18T15:48:44;17.50;36.50
74617;DHT22;63123;50.906;4.198;2022-12-18T15:51:26;17.50;36.60
74617;DHT22;63123;50.906;4.198;2022-12-18T15:53:55;17.60;36.20
74617;DHT22;63123;50.906;4.198;2022-12-18T15:56:22;17.60;36.70
74617;DHT22;63123;50.906;4.198;2022-12-18T15:59:12;17.60;36.20
74617;DHT22;63123;50.906;4.198;2022-12-18T16:01:40;17.60;36.80
74617;DHT22;63123;50.906;4.198;2022-12-18T16:04:06;17.60;36.60
74617;DHT22;63123;50.906;4.198;2022-12-18T16:06:32;17.60;36.00
74617;DHT22;63123;50.906;4.198;2022-12-18T16:08:57;17.50;36.60
74617;DHT22;63123;50.906;4.198;2022-12-18T16:11:28;17.60;36.90
74617;DHT22;63123;50.906;4.198;2022-12-18T16:16:50;17.60;36.80
74617;DHT22;63123;50.906;4.198;2022-12-18T16:19:17;17.50;36.50
74617;DHT22;63123;50.906;4.198;2022-12-18T16:21:43;17.50;36.90
74617;DHT22;63123;50.906;4.198;2022-12-18T16:24:16;17.50;36.90
74617;DHT22;63123;50.906;4.198;2022-12-18T16:26:44;17.60;36.70
74617;DHT22;63123;50.906;4.198;2022-12-18T16:29:09;17.50;36.60
74617;DHT22;63123;50.906;4.198;2022-12-18T16:31:36;17.50;36.60
74617;DHT22;63123;50.906;4.198;2022-12-18T16:36:39;17.60;36.90
74617;DHT22;63123;50.906;4.198;2022-12-18T16:39:05;17.50;37.20
74617;DHT22;63123;50.906;4.198;2022-12-18T16:41:31;17.50;37.00
74617;DHT22;63123;50.906;4.198;2022-12-18T16:43:58;17.50;36.30
74617;DHT22;63123;50.906;4.198;2022-12-18T16:46:23;17.60;36.60
74617;DHT22;63123;50.906;4.198;2022-12-18T16:48:49;17.50;35.90
74617;DHT22;63123;50.906;4.198;2022-12-18T16:51:15;17.50;36.40
74617;DHT22;63123;50.906;4.198;2022-12-18T16:53:40;17.50;37.00
74617;DHT22;63123;50.906;4.198;2022-12-18T16:56:06;17.60;36.50
74617;DHT22;63123;50.906;4.198;2022-12-18T16:58:32;17.50;36.50
74617;DHT22;63123;50.906;4.198;2022-12-18T17:00:57;17.50;36.70
74617;DHT22;63123;50.906;4.198;2022-12-18T17:03:23;17.60;36.90
74617;DHT22;63123;50.906;4.198;2022-12-18T17:05:48;17.60;36.50
74617;DHT22;63123;50.906;4.198;2022-12-18T17:08:14;17.50;36.10
74617;DHT22;63123;50.906;4.198;2022-12-18T17:10:40;17.50;36.00
74617;DHT22;63123;50.906;4.198;2022-12-18T17:13:05;17.60;36.80
74617;DHT22;63123;50.906;4.198;2022-12-18T17:15:34;17.60;36.50
74617;DHT22;63123;50.906;4.198;2022-12-18T17:18:01;17.60;36.40
74617;DHT22;63123;50.906;4.198;2022-12-18T17:20:26;17.50;36.50
74617;DHT22;63123;50.906;4.198;2022-12-18T17:22:52;17.50;36.20
74617;DHT22;63123;50.906;4.198;2022-12-18T17:25:18;17.60;36.60
74617;DHT22;63123;50.906;4.198;2022-12-18T17:27:43;17.60;36.30
74617;DHT22;63123;50.906;4.198;2022-12-18T17:30:09;17.60;36.70
74617;DHT22;63123;50.906;4.198;2022-12-18T17:32:35;17.50;36.60
74617;DHT22;63123;50.906;4.198;2022-12-18T17:35:01;17.60;36.70
74617;DHT22;63123;50.906;4.198;2022-12-18T17:37:27;17.50;36.60
74617;DHT22;63123;50.906;4.198;2022-12-18T17:39:53;17.50;37.00
74617;DHT22;63123;50.906;4.198;2022-12-18T17:42:18;17.50;37.20
74617;DHT22;63123;50.906;4.198;2022-12-18T17:44:44;17.60;37.00